Time;durP1;ratioP1;P1;durP2;ratioP2;P2;SDS_P1;SDS_P2;PMS_P1;PMS_P2;Temp;Humidity;BMP_temperature;BMP_pressure;BME280_temperature;BME280_humidity;BME280_pressure;Samples;Min_cycle;Max_cycle;Signal;HPM_P1;HPM_P2
2023/09/19 00:01:33;;;;;;;7.18;2.03;;;14.50;99.90;;;;;;5054367;28;20045;-73
2023/09/19 00:03:59;;;;;;;7.57;1.92;;;14.60;99.90;;;;;;5055647;28;20048;-73
2023/09/19 00:06:25;;;;;;;6.70;2.03;;;14.60;99.90;;;;;;5073398;28;20391;-74
2023/09/19 00:08:52;;;;;;;7.60;1.65;;;14.70;99.90;;;;;;5055759;28;20052;-74
2023/09/19 00:11:17;;;;;;;6.05;2.10;;;14.70;99.90;;;;;;5052068;28;20043;-73
2023/09/19 00:13:48;;;;;;;5.32;1.63;;;14.80;99.90;;;;;;5035005;28;20049;-74
2023/09/19 00:16:15;;;;;;;10.05;2.00;;;14.90;99.90;;;;;;5053780;28;20045;-74
2023/09/19 00:18:41;;;;;;;9.82;2.08;;;14.90;99.90;;;;;;5053300;28;20045;-73
2023/09/19 00:21:07;;;;;;;6.05;1.63;;;14.90;99.90;;;;;;5066952;28;20102;-74
2023/09/19 00:23:33;;;;;;;7.18;1.77;;;14.80;99.90;;;;;;5073490;28;20052;-74
2023/09/19 00:26:00;;;;;;;11.55;2.28;;;14.80;99.90;;;;;;5051554;28;20468;-73
2023/09/19 00:28:26;;;;;;;10.63;2.45;;;14.80;99.90;;;;;;5035066;28;20132;-73
2023/09/19 00:30:51;;;;;;;9.98;1.77;;;14.70;99.90;;;;;;5047663;28;20071;-73
2023/09/19 00:33:19;;;;;;;13.80;2.30;;;14.60;99.90;;;;;;5054780;28;20062;-73
2023/09/19 00:35:58;;;;;;;7.75;1.98;;;14.60;99.90;;;;;;5054630;28;20059;-73
2023/09/19 00:38:26;;;;;;;8.30;1.90;;;14.90;99.90;;;;;;5072947;28;20046;-73
2023/09/19 00:40:53;;;;;;;11.48;2.35;;;14.60;99.90;;;;;;5053778;28;20045;-73
2023/09/19 00:43:20;;;;;;;9.80;1.73;;;14.50;99.90;;;;;;5055551;28;20056;-73
2023/09/19 00:45:49;;;;;;;9.80;2.00;;;14.40;99.90;;;;;;5054559;28;20079;-73
2023/09/19 00:48:16;;;;;;;9.27;2.00;;;14.40;99.90;;;;;;5054328;28;20052;-73
2023/09/19 00:50:43;;;;;;;8.48;2.05;;;14.40;99.90;;;;;;5050842;28;20041;-72
2023/09/19 00:53:13;;;;;;;6.15;1.67;;;14.40;99.90;;;;;;5053051;28;20128;-73
2023/09/19 00:55:40;;;;;;;8.18;1.73;;;14.40;99.90;;;;;;5054175;28;20083;-73
2023/09/19 00:58:06;;;;;;;10.43;1.60;;;14.40;99.90;;;;;;5054440;28;20496;-73
2023/09/19 01:00:35;;;;;;;6.68;1.73;;;14.40;99.90;;;;;;5054334;28;20071;-73
2023/09/19 01:03:01;;;;;;;9.00;1.83;;;14.30;99.90;;;;;;5053453;28;20055;-73
2023/09/19 01:05:28;;;;;;;6.88;1.63;;;14.30;99.90;;;;;;5072721;28;20396;-73
2023/09/19 01:07:53;;;;;;;10.07;1.83;;;14.30;99.90;;;;;;5054298;28;20048;-73
2023/09/19 01:10:20;;;;;;;10.35;2.25;;;14.20;99.90;;;;;;5053282;28;20044;-73
2023/09/19 01:13:05;;;;;;;9.00;1.90;;;14.20;99.90;;;;;;5051244;28;20058;-73
2023/09/19 01:15:42;;;;;;;9.82;2.00;;;14.20;99.90;;;;;;5052632;28;20045;-73
2023/09/19 01:18:23;;;;;;;7.13;1.77;;;14.20;99.90;;;;;;5033928;28;20504;-73
2023/09/19 01:21:15;;;;;;;9.38;1.88;;;14.30;99.90;;;;;;5067713;28;20044;-74
2023/09/19 01:24:03;;;;;;;8.35;1.88;;;14.30;99.90;;;;;;5053489;28;20044;-73
2023/09/19 01:26:43;;;;;;;9.10;1.90;;;14.50;99.90;;;;;;5054473;28;20056;-73
2023/09/19 01:29:43;;;;;;;6.75;1.70;;;14.50;99.90;;;;;;5053685;28;20057;-73
2023/09/19 01:32:13;;;;;;;7.45;1.60;;;14.50;99.90;;;;;;5054072;28;20399;-74
2023/09/19 01:34:47;;;;;;;7.18;1.60;;;14.60;99.90;;;;;;5054274;28;20090;-73
2023/09/19 01:37:14;;;;;;;10.60;1.40;;;14.70;99.90;;;;;;5053757;28;20048;-73
2023/09/19 01:39:40;;;;;;;7.03;1.80;;;14.60;99.90;;;;;;5053722;28;20049;-73
2023/09/19 01:42:25;;;;;;;6.50;1.73;;;14.60;99.90;;;;;;5054215;28;20044;-73
2023/09/19 01:45:34;;;;;;;9.25;2.05;;;14.50;99.90;;;;;;5053636;28;20060;-73
2023/09/19 01:48:24;;;;;;;9.98;1.85;;;14.50;99.90;;;;;;5046469;28;20061;-73
2023/09/19 01:51:00;;;;;;;8.95;1.58;;;14.50;99.90;;;;;;5053642;28;20041;-73
2023/09/19 01:53:40;;;;;;;9.20;1.80;;;14.60;99.90;;;;;;5091900;28;20368;-73
2023/09/19 01:56:12;;;;;;;9.50;1.70;;;14.60;99.90;;;;;;5076362;28;20372;-74
2023/09/19 01:58:44;;;;;;;5.72;1.33;;;14.50;99.90;;;;;;5057628;28;20056;-73
2023/09/19 02:01:15;;;;;;;5.85;1.50;;;14.50;99.90;;;;;;5055065;28;20037;-73
2023/09/19 02:03:41;;;;;;;6.60;1.83;;;14.50;99.90;;;;;;5057967;28;20064;-73
2023/09/19 02:06:11;;;;;;;8.52;1.73;;;14.50;99.90;;;;;;5075074;28;20044;-74
2023/09/19 02:08:37;;;;;;;8.82;2.05;;;14.60;99.90;;;;;;5058117;28;20052;-74
2023/09/19 02:11:03;;;;;;;7.80;2.05;;;14.70;99.90;;;;;;5056861;28;20522;-74
2023/09/19 02:13:31;;;;;;;9.13;1.73;;;14.60;99.90;;;;;;5056692;28;20102;-74
2023/09/19 02:15:57;;;;;;;5.72;1.50;;;14.60;99.90;;;;;;5057679;28;20051;-74
2023/09/19 02:18:23;;;;;;;8.23;1.60;;;14.60;99.90;;;;;;5057846;28;20040;-74
2023/09/19 02:20:51;;;;;;;7.13;1.40;;;14.60;99.90;;;;;;5057221;28;20136;-73
2023/09/19 02:23:16;;;;;;;7.35;1.52;;;14.70;99.90;;;;;;5057926;28;20048;-73
2023/09/19 02:25:43;;;;;;;8.45;1.75;;;14.70;99.90;;;;;;5057861;28;20048;-74
2023/09/19 02:28:09;;;;;;;10.65;2.17;;;14.80;99.90;;;;;;5056012;28;20044;-73
2023/09/19 02:30:40;;;;;;;9.13;1.80;;;14.80;99.90;;;;;;5075410;28;20048;-73
2023/09/19 02:33:06;;;;;;;9.65;1.80;;;14.80;99.90;;;;;;5056588;28;20044;-74
2023/09/19 02:35:35;;;;;;;6.03;1.45;;;14.90;99.90;;;;;;5057939;28;20056;-73
2023/09/19 02:38:00;;;;;;;8.70;1.80;;;14.90;99.90;;;;;;5075153;28;20403;-73
2023/09/19 02:40:26;;;;;;;7.05;1.80;;;14.80;99.90;;;;;;5055550;28;20052;-73
2023/09/19 02:42:55;;;;;;;6.72;1.50;;;14.80;99.90;;;;;;5052143;28;20053;-73
2023/09/19 02:45:22;;;;;;;9.45;1.70;;;14.90;99.90;;;;;;5036556;28;20041;-73
2023/09/19 02:47:49;;;;;;;8.60;1.80;;;15.00;99.90;;;;;;5056587;28;20053;-73
2023/09/19 02:50:16;;;;;;;6.45;1.60;;;15.00;99.90;;;;;;5074030;28;20726;-73
2023/09/19 02:52:48;;;;;;;4.90;1.50;;;15.00;99.90;;;;;;5055892;28;20041;-73
2023/09/19 02:55:17;;;;;;;6.22;1.63;;;14.80;99.90;;;;;;5055245;28;20180;-73
2023/09/19 02:57:55;;;;;;;7.90;1.73;;;14.80;99.90;;;;;;5054770;28;20473;-73
2023/09/19 03:00:21;;;;;;;6.22;1.40;;;14.70;99.90;;;;;;5056380;28;20040;-73
2023/09/19 03:02:52;;;;;;;6.15;2.10;;;14.60;99.90;;;;;;5054874;28;20052;-73
2023/09/19 03:05:18;;;;;;;8.15;1.70;;;14.70;99.90;;;;;;5055571;28;20060;-73
2023/09/19 03:07:46;;;;;;;5.05;1.50;;;14.50;99.90;;;;;;5073161;28;20115;-73
2023/09/19 03:10:14;;;;;;;8.57;1.83;;;14.50;99.90;;;;;;5055456;28;20111;-73
2023/09/19 03:12:40;;;;;;;5.60;1.80;;;14.40;99.90;;;;;;5055764;28;20044;-73
2023/09/19 03:15:08;;;;;;;7.05;1.65;;;14.40;99.90;;;;;;5073427;28;20048;-73
2023/09/19 03:17:34;;;;;;;6.32;1.90;;;14.40;99.90;;;;;;5054852;28;20041;-73
2023/09/19 03:19:59;;;;;;;10.07;1.50;;;14.40;99.90;;;;;;5054914;28;20052;-73
2023/09/19 03:22:27;;;;;;;10.40;1.90;;;14.60;99.90;;;;;;5055183;28;20045;-73
2023/09/19 03:24:53;;;;;;;8.18;1.58;;;14.60;99.90;;;;;;5055240;28;20068;-73
2023/09/19 03:27:18;;;;;;;6.97;1.70;;;14.40;99.90;;;;;;5055783;28;20392;-73
2023/09/19 03:29:44;;;;;;;8.77;1.90;;;14.30;99.90;;;;;;5054626;28;20036;-73
2023/09/19 03:32:10;;;;;;;11.10;1.70;;;14.40;99.90;;;;;;5055130;28;20693;-73
2023/09/19 03:34:40;;;;;;;10.48;1.73;;;14.30;99.90;;;;;;5055815;28;20491;-73
2023/09/19 03:37:07;;;;;;;8.55;1.52;;;14.30;99.90;;;;;;5072656;28;20060;-73
2023/09/19 03:39:33;;;;;;;7.65;1.48;;;14.30;99.90;;;;;;5034468;28;1103878;-73
2023/09/19 03:41:58;;;;;;;5.85;1.70;;;14.30;99.90;;;;;;5056788;28;20048;-73
2023/09/19 03:44:24;;;;;;;5.57;2.50;;;14.40;99.90;;;;;;5055751;28;20044;-73
2023/09/19 03:46:50;;;;;;;8.43;1.75;;;14.40;99.90;;;;;;5055464;28;20048;-73
2023/09/19 03:49:15;;;;;;;7.38;1.90;;;14.40;99.90;;;;;;5056020;28;20036;-73
2023/09/19 03:51:41;;;;;;;8.45;1.90;;;14.50;99.90;;;;;;5055558;28;20449;-73
2023/09/19 03:54:07;;;;;;;6.22;1.90;;;14.40;99.90;;;;;;5055635;28;20048;-72
2023/09/19 03:56:33;;;;;;;8.35;2.20;;;14.50;99.90;;;;;;5055592;28;20044;-73
2023/09/19 03:59:02;;;;;;;10.15;2.10;;;14.40;99.90;;;;;;5072142;28;20391;-73
2023/09/19 04:01:30;;;;;;;6.13;1.80;;;14.40;99.90;;;;;;5055669;28;20086;-74
2023/09/19 04:03:56;;;;;;;7.30;1.98;;;14.40;99.90;;;;;;5055965;28;20052;-73
2023/09/19 04:06:22;;;;;;;10.15;1.80;;;14.40;99.90;;;;;;5066788;28;20036;-72
2023/09/19 04:08:48;;;;;;;6.28;1.65;;;14.50;99.90;;;;;;5037727;28;20056;-79
2023/09/19 04:11:14;;;;;;;11.43;2.05;;;14.50;99.90;;;;;;5035982;28;20040;-74
2023/09/19 04:13:40;;;;;;;8.35;1.63;;;14.60;99.90;;;;;;5053176;28;20511;-74
2023/09/19 04:16:06;;;;;;;10.05;1.90;;;14.50;99.90;;;;;;5051139;28;20350;-73
2023/09/19 04:18:37;;;;;;;10.10;1.80;;;14.60;99.90;;;;;;5054529;28;20153;-75
2023/09/19 04:21:04;;;;;;;7.95;1.65;;;14.60;99.90;;;;;;5073424;28;20097;-73
2023/09/19 04:23:29;;;;;;;6.07;1.70;;;14.70;99.90;;;;;;5055210;28;20040;-73
2023/09/19 04:25:55;;;;;;;6.88;1.60;;;14.70;99.90;;;;;;5054463;28;20048;-74
2023/09/19 04:28:24;;;;;;;8.38;2.20;;;14.60;99.90;;;;;;5055382;28;20051;-73
2023/09/19 04:30:50;;;;;;;7.85;1.80;;;14.70;99.90;;;;;;5052313;28;20571;-73
2023/09/19 04:33:16;;;;;;;6.43;1.60;;;14.80;99.90;;;;;;5062463;28;20041;-75
2023/09/19 04:35:42;;;;;;;7.22;2.08;;;14.70;99.90;;;;;;5049617;28;20056;-73
2023/09/19 04:38:08;;;;;;;6.07;1.63;;;14.70;99.90;;;;;;5053316;28;20044;-71
2023/09/19 04:40:34;;;;;;;7.72;1.80;;;14.60;99.90;;;;;;5052542;28;20124;-73
2023/09/19 04:43:00;;;;;;;6.38;1.60;;;14.60;99.90;;;;;;5053357;28;20174;-73
2023/09/19 04:45:27;;;;;;;8.48;1.50;;;14.70;99.90;;;;;;5053829;28;20049;-73
2023/09/19 04:47:54;;;;;;;8.98;1.55;;;14.70;99.90;;;;;;5050965;28;20049;-73
2023/09/19 04:50:21;;;;;;;10.98;1.98;;;14.70;99.90;;;;;;5054383;28;20051;-75
2023/09/19 04:52:50;;;;;;;7.65;1.65;;;14.70;99.90;;;;;;5051245;28;20049;-72
2023/09/19 04:55:16;;;;;;;13.35;3.13;;;14.60;99.90;;;;;;5062158;28;20121;-71
2023/09/19 04:57:55;;;;;;;8.52;2.10;;;14.70;99.90;;;;;;5050784;28;20472;-75
2023/09/19 05:00:27;;;;;;;13.27;2.45;;;14.70;99.90;;;;;;5035409;28;20041;-73
2023/09/19 05:02:56;;;;;;;13.57;2.17;;;14.70;99.90;;;;;;5040666;28;20039;-72
2023/09/19 05:05:23;;;;;;;14.27;2.38;;;14.70;99.90;;;;;;5054943;28;20392;-73
2023/09/19 05:07:49;;;;;;;13.27;2.22;;;14.70;99.90;;;;;;5049181;28;20110;-73
2023/09/19 05:10:18;;;;;;;8.63;2.00;;;14.70;99.90;;;;;;5048756;28;20044;-71
2023/09/19 05:12:47;;;;;;;9.80;2.35;;;14.90;99.90;;;;;;5051089;28;20514;-73
2023/09/19 05:15:14;;;;;;;12.00;2.20;;;14.90;99.90;;;;;;5034178;28;20044;-71
2023/09/19 05:17:40;;;;;;;9.20;1.80;;;14.90;99.90;;;;;;5054281;28;20476;-72
2023/09/19 05:20:24;;;;;;;5.85;2.00;;;14.90;99.90;;;;;;5053856;28;20049;-72
2023/09/19 05:22:57;;;;;;;9.25;1.90;;;14.80;99.90;;;;;;5053400;28;20084;-73
2023/09/19 05:25:22;;;;;;;6.82;1.90;;;14.90;99.90;;;;;;5048417;28;20045;-72
2023/09/19 05:27:48;;;;;;;7.07;1.85;;;14.90;99.90;;;;;;5032826;28;20041;-72
2023/09/19 05:30:14;;;;;;;8.80;1.75;;;15.00;99.90;;;;;;5033494;28;20059;-71
2023/09/19 05:32:40;;;;;;;10.82;1.92;;;14.90;99.90;;;;;;5052266;28;20044;-72
2023/09/19 05:35:09;;;;;;;7.25;1.95;;;15.00;99.90;;;;;;5050195;28;20045;-71
2023/09/19 05:37:36;;;;;;;8.93;1.77;;;15.00;99.90;;;;;;5033841;28;20049;-72
2023/09/19 05:40:09;;;;;;;6.43;1.40;;;15.00;99.90;;;;;;5033506;28;20057;-72
2023/09/19 05:42:35;;;;;;;9.65;1.95;;;15.00;99.90;;;;;;5050817;28;20049;-72
2023/09/19 05:45:00;;;;;;;10.90;2.30;;;15.10;99.90;;;;;;5052435;28;20048;-71
2023/09/19 05:47:26;;;;;;;9.02;1.55;;;15.10;99.90;;;;;;5052422;28;20033;-71
2023/09/19 05:49:52;;;;;;;7.40;1.67;;;15.10;99.90;;;;;;5070583;28;20150;-71
2023/09/19 05:52:18;;;;;;;8.43;1.60;;;15.10;99.90;;;;;;5050366;28;20179;-71
2023/09/19 05:54:44;;;;;;;10.05;1.55;;;15.10;99.90;;;;;;5034230;28;20396;-71
2023/09/19 05:57:12;;;;;;;8.27;1.80;;;15.10;99.90;;;;;;5033473;28;20044;-71
2023/09/19 05:59:39;;;;;;;5.40;1.70;;;15.10;99.90;;;;;;5063980;28;20048;-75
2023/09/19 06:02:06;;;;;;;9.38;2.42;;;15.10;99.90;;;;;;5054022;28;20123;-72
2023/09/19 06:04:32;;;;;;;9.77;1.90;;;15.10;99.90;;;;;;5070791;28;20076;-76
2023/09/19 06:06:58;;;;;;;7.55;1.83;;;15.00;99.90;;;;;;5053188;28;20129;-75
2023/09/19 06:09:23;;;;;;;6.60;1.80;;;15.10;99.90;;;;;;5053595;28;20102;-71
2023/09/19 06:11:49;;;;;;;9.77;1.77;;;15.10;99.90;;;;;;5049299;28;20427;-71
2023/09/19 06:14:17;;;;;;;8.30;2.13;;;15.20;99.90;;;;;;5034270;28;20076;-71
2023/09/19 06:16:44;;;;;;;11.18;2.05;;;15.10;99.90;;;;;;5051767;28;20087;-71
2023/09/19 06:19:09;;;;;;;10.30;2.05;;;15.30;99.90;;;;;;5034700;28;20049;-72
2023/09/19 06:21:36;;;;;;;5.65;1.75;;;15.30;99.90;;;;;;5053916;28;20123;-71
2023/09/19 06:24:02;;;;;;;8.18;1.95;;;15.30;99.90;;;;;;5053523;28;20578;-71
2023/09/19 06:26:29;;;;;;;10.68;1.83;;;15.40;99.90;;;;;;5053129;28;20044;-71
2023/09/19 06:28:55;;;;;;;7.78;1.80;;;15.40;99.90;;;;;;5053618;28;20057;-71
2023/09/19 06:31:22;;;;;;;8.93;1.80;;;15.40;99.90;;;;;;5045175;28;20531;-71
2023/09/19 06:33:48;;;;;;;7.35;1.80;;;15.40;99.90;;;;;;5058602;28;20053;-71
2023/09/19 06:36:15;;;;;;;10.88;2.08;;;15.50;99.90;;;;;;5057539;28;20048;-71
2023/09/19 06:38:40;;;;;;;5.30;1.63;;;15.50;99.90;;;;;;5057071;28;20093;-71
2023/09/19 06:41:09;;;;;;;6.65;1.75;;;15.50;99.90;;;;;;5056145;28;20052;-71
2023/09/19 06:43:35;;;;;;;9.45;2.13;;;15.50;99.90;;;;;;5074934;28;20041;-71
2023/09/19 06:46:01;;;;;;;11.63;2.20;;;15.50;99.90;;;;;;5056569;28;20044;-71
2023/09/19 06:48:29;;;;;;;11.52;2.00;;;15.50;99.90;;;;;;5054076;28;20051;-71
2023/09/19 06:51:05;;;;;;;7.45;1.90;;;15.60;99.90;;;;;;5057122;28;20045;-71
2023/09/19 06:53:35;;;;;;;11.48;1.73;;;15.70;99.90;;;;;;5056292;28;20052;-71
2023/09/19 06:56:01;;;;;;;9.10;1.95;;;15.70;99.90;;;;;;5052669;28;20136;-72
2023/09/19 06:58:27;;;;;;;11.02;1.92;;;15.70;99.90;;;;;;5055097;28;20499;-71
2023/09/19 07:00:56;;;;;;;9.82;1.98;;;15.70;99.90;;;;;;5056169;28;20044;-71
2023/09/19 07:03:25;;;;;;;11.65;2.42;;;15.80;99.90;;;;;;5056995;28;20076;-72
2023/09/19 07:05:50;;;;;;;10.88;1.95;;;15.90;99.90;;;;;;5056066;28;20045;-72
2023/09/19 07:08:16;;;;;;;10.70;2.13;;;16.00;99.90;;;;;;5056158;28;20043;-71
2023/09/19 07:10:48;;;;;;;8.13;1.83;;;16.00;99.90;;;;;;5074492;28;20416;-71
2023/09/19 07:13:16;;;;;;;9.40;1.70;;;16.00;99.90;;;;;;5052994;28;20041;-71
2023/09/19 07:15:46;;;;;;;8.00;1.75;;;16.00;99.90;;;;;;5063444;28;20037;-71
2023/09/19 07:18:16;;;;;;;7.22;1.70;;;16.00;99.90;;;;;;5056865;28;20041;-72
2023/09/19 07:20:49;;;;;;;10.00;2.25;;;16.00;99.90;;;;;;5056558;28;20414;-71
2023/09/19 07:23:25;;;;;;;10.02;2.25;;;16.00;99.90;;;;;;5055996;28;20368;-71
2023/09/19 07:25:51;;;;;;;10.05;1.83;;;16.10;99.90;;;;;;5074339;28;20048;-72
2023/09/19 07:28:20;;;;;;;10.18;2.22;;;16.30;99.90;;;;;;5056589;28;20056;-71
2023/09/19 07:30:45;;;;;;;9.60;2.10;;;16.70;99.90;;;;;;5055940;28;20059;-71
2023/09/19 07:33:11;;;;;;;9.38;1.92;;;17.60;99.90;;;;;;5074020;28;20124;-72
2023/09/19 07:35:40;;;;;;;7.55;1.80;;;18.20;99.90;;;;;;5055612;28;20048;-72
2023/09/19 07:38:06;;;;;;;7.80;1.80;;;18.60;99.90;;;;;;5055884;28;20480;-72
2023/09/19 07:40:32;;;;;;;9.45;2.17;;;19.40;99.90;;;;;;5056109;28;20060;-72
2023/09/19 07:43:01;;;;;;;7.70;1.60;;;19.90;98.90;;;;;;5072612;28;20132;-71
2023/09/19 07:45:29;;;;;;;11.93;2.22;;;20.40;98.30;;;;;;5055197;28;20040;-72
2023/09/19 07:47:55;;;;;;;8.57;2.10;;;20.50;98.40;;;;;;5055953;28;20174;-72
2023/09/19 07:50:21;;;;;;;7.93;1.73;;;20.80;98.30;;;;;;5055307;28;20514;-72
2023/09/19 07:52:50;;;;;;;5.07;1.35;;;20.70;98.80;;;;;;5073852;28;20041;-72
2023/09/19 07:55:17;;;;;;;6.22;1.73;;;20.70;97.20;;;;;;5073930;28;20041;-72
2023/09/19 07:57:46;;;;;;;7.07;2.25;;;20.70;97.30;;;;;;5055587;28;20067;-72
2023/09/19 08:00:13;;;;;;;8.15;1.55;;;20.80;97.40;;;;;;5055737;28;20055;-72
2023/09/19 08:02:40;;;;;;;6.05;1.52;;;20.80;96.60;;;;;;5055953;28;20044;-72
2023/09/19 08:05:06;;;;;;;5.85;1.70;;;20.60;96.00;;;;;;5072513;28;20045;-71
2023/09/19 08:07:36;;;;;;;5.93;1.50;;;20.30;96.20;;;;;;5055942;28;20048;-71
2023/09/19 08:10:03;;;;;;;6.63;1.70;;;20.10;97.30;;;;;;5055197;28;20059;-72
2023/09/19 08:12:30;;;;;;;9.50;2.25;;;20.20;97.40;;;;;;5054846;28;20054;-72
2023/09/19 08:14:55;;;;;;;9.30;1.98;;;20.00;97.50;;;;;;5052030;28;20049;-72
2023/09/19 08:17:22;;;;;;;9.77;2.22;;;20.10;97.40;;;;;;5049578;28;20380;-72
2023/09/19 08:19:52;;;;;;;9.07;1.65;;;20.40;96.80;;;;;;5044754;28;20049;-71
2023/09/19 08:22:19;;;;;;;8.40;2.15;;;20.10;97.20;;;;;;5035817;28;20045;-71
2023/09/19 08:24:47;;;;;;;11.25;2.33;;;19.60;98.60;;;;;;5046337;28;20049;-71
2023/09/19 08:27:13;;;;;;;7.00;2.08;;;19.20;99.90;;;;;;5055613;28;20143;-71
2023/09/19 08:29:39;;;;;;;8.88;1.95;;;18.90;99.90;;;;;;5055529;28;20551;-71
2023/09/19 08:32:04;;;;;;;9.23;2.70;;;18.70;99.90;;;;;;5054514;28;20131;-71
2023/09/19 08:34:32;;;;;;;9.80;2.20;;;18.60;99.90;;;;;;5054671;28;20484;-72
2023/09/19 08:36:58;;;;;;;9.35;2.20;;;19.10;99.90;;;;;;5054558;28;20055;-72
2023/09/19 08:39:33;;;;;;;6.88;2.15;;;19.70;99.90;;;;;;5054034;28;20045;-72
2023/09/19 08:41:59;;;;;;;7.30;1.85;;;20.10;98.80;;;;;;5054859;28;20057;-72
2023/09/19 08:44:25;;;;;;;12.00;1.90;;;20.70;97.30;;;;;;5055020;28;20083;-72
2023/09/19 08:46:55;;;;;;;7.55;1.98;;;20.70;97.30;;;;;;5054010;28;20503;-72
2023/09/19 08:49:29;;;;;;;6.82;2.05;;;20.40;96.70;;;;;;5055614;28;20064;-72
2023/09/19 08:52:07;;;;;;;8.98;2.00;;;20.60;96.50;;;;;;5054304;28;20075;-72
2023/09/19 08:54:39;;;;;;;8.93;2.47;;;20.80;96.80;;;;;;5050421;28;20041;-71
2023/09/19 08:57:10;;;;;;;7.75;2.10;;;21.00;96.20;;;;;;5035010;28;20144;-72
2023/09/19 08:59:41;;;;;;;10.85;2.15;;;21.30;96.90;;;;;;5052734;28;20084;-72
2023/09/19 09:02:18;;;;;;;9.18;1.98;;;21.70;96.30;;;;;;5033794;28;20562;-72
2023/09/19 09:04:45;;;;;;;7.18;2.10;;;22.00;95.30;;;;;;5065327;28;20181;-73
2023/09/19 09:07:16;;;;;;;7.80;2.00;;;22.10;95.50;;;;;;5071419;28;20479;-72
2023/09/19 09:09:43;;;;;;;10.18;2.20;;;22.00;95.20;;;;;;5072999;28;20464;-72
2023/09/19 09:12:14;;;;;;;10.70;2.10;;;22.40;95.00;;;;;;5054572;28;20075;-73
2023/09/19 09:14:48;;;;;;;9.70;2.47;;;22.70;95.40;;;;;;5071175;28;20037;-73
2023/09/19 09:17:20;;;;;;;7.88;2.20;;;23.00;94.70;;;;;;5072328;28;20052;-73
2023/09/19 09:19:47;;;;;;;9.25;2.35;;;23.20;94.30;;;;;;5054469;28;20079;-73
2023/09/19 09:22:16;;;;;;;10.13;2.28;;;23.50;93.30;;;;;;5053712;28;20498;-72
2023/09/19 09:25:01;;;;;;;11.02;2.20;;;23.90;93.80;;;;;;5051220;28;20095;-72
2023/09/19 09:27:27;;;;;;;12.18;2.63;;;24.40;93.20;;;;;;5034469;28;20052;-72
2023/09/19 09:29:56;;;;;;;8.13;2.22;;;24.30;92.90;;;;;;5036018;28;20044;-72
2023/09/19 09:32:22;;;;;;;6.40;2.10;;;24.30;93.00;;;;;;5072077;28;20044;-72
2023/09/19 09:34:50;;;;;;;7.93;2.47;;;23.80;93.50;;;;;;5053996;28;20045;-72
2023/09/19 09:37:20;;;;;;;8.82;2.10;;;24.40;93.50;;;;;;5053231;28;20053;-71
2023/09/19 09:39:54;;;;;;;8.20;2.38;;;24.40;93.60;;;;;;5071691;28;20618;-71
2023/09/19 09:42:52;;;;;;;7.28;2.17;;;24.20;93.00;;;;;;5053573;28;20643;-72
2023/09/19 09:48:03;;;;;;;10.60;2.60;;;22.90;94.50;;;;;;5071959;28;20052;-72
2023/09/19 09:53:07;;;;;;;9.48;2.35;;;22.50;96.40;;;;;;5072066;28;20080;-71
2023/09/19 09:56:14;;;;;;;8.43;2.10;;;22.70;96.00;;;;;;5048340;28;20456;-72
2023/09/19 09:58:48;;;;;;;10.30;1.92;;;22.30;94.80;;;;;;4970761;28;20090;-71
2023/09/19 10:01:15;;;;;;;10.40;2.17;;;21.80;95.20;;;;;;5026142;28;20063;-71
2023/09/19 10:03:49;;;;;;;9.30;2.42;;;21.40;96.20;;;;;;5033354;28;20518;-71
2023/09/19 10:09:10;;;;;;;8.57;1.98;;;21.60;97.60;;;;;;5057129;28;20201;-71
2023/09/19 10:11:45;;;;;;;7.72;2.00;;;22.10;96.10;;;;;;5057421;28;20177;-72
2023/09/19 10:14:16;;;;;;;10.43;2.13;;;22.20;96.70;;;;;;5057616;28;20541;-72
2023/09/19 10:16:47;;;;;;;11.25;2.00;;;22.00;96.10;;;;;;5075386;28;20067;-71
2023/09/19 10:19:22;;;;;;;7.82;2.03;;;21.60;96.20;;;;;;5052783;28;20452;-72
2023/09/19 10:21:50;;;;;;;9.73;2.42;;;21.30;97.20;;;;;;5055299;28;20083;-72
2023/09/19 10:24:17;;;;;;;10.88;2.10;;;21.10;97.90;;;;;;5036989;28;20131;-74
2023/09/19 10:26:45;;;;;;;10.43;2.22;;;21.00;97.70;;;;;;5052641;28;20489;-74
2023/09/19 10:29:16;;;;;;;9.80;2.03;;;21.10;98.00;;;;;;5057537;28;20113;-71
2023/09/19 10:31:47;;;;;;;14.88;2.75;;;20.70;98.60;;;;;;5056843;28;20037;-74
2023/09/19 10:34:14;;;;;;;7.40;2.05;;;20.60;99.50;;;;;;5057387;28;20080;-71
2023/09/19 10:36:45;;;;;;;11.18;2.15;;;20.60;99.80;;;;;;5057153;28;20040;-71
2023/09/19 10:39:13;;;;;;;10.88;2.40;;;20.40;99.90;;;;;;5056254;28;20063;-72
2023/09/19 10:41:39;;;;;;;13.05;2.92;;;20.20;99.90;;;;;;5056025;28;20041;-73
2023/09/19 10:44:09;;;;;;;9.77;1.77;;;20.00;99.90;;;;;;5053209;28;20182;-72
2023/09/19 10:46:36;;;;;;;9.63;2.97;;;19.80;99.90;;;;;;5036743;28;20124;-71
2023/09/19 10:49:03;;;;;;;6.95;2.15;;;19.30;99.90;;;;;;5054780;28;20053;-71
2023/09/19 10:51:41;;;;;;;12.85;2.95;;;19.10;99.90;;;;;;5054165;28;20049;-71
2023/09/19 10:54:13;;;;;;;12.93;3.17;;;18.70;99.90;;;;;;5036201;28;20052;-71
2023/09/19 10:56:48;;;;;;;11.85;2.92;;;18.00;99.90;;;;;;5041696;28;20060;-71
2023/09/19 10:59:21;;;;;;;13.90;2.53;;;17.80;99.90;;;;;;5057104;28;20124;-71
2023/09/19 11:01:50;;;;;;;12.27;2.60;;;18.00;99.90;;;;;;5055992;28;20040;-71
2023/09/19 11:04:38;;;;;;;11.90;2.58;;;18.90;99.90;;;;;;5057191;28;20091;-72
2023/09/19 11:07:17;;;;;;;9.32;2.22;;;19.90;99.90;;;;;;5055858;28;20488;-71
2023/09/19 11:09:57;;;;;;;8.30;2.88;;;19.90;99.90;;;;;;5056980;28;20051;-71
2023/09/19 11:12:35;;;;;;;11.48;2.95;;;19.10;99.90;;;;;;5053392;28;20049;-71
2023/09/19 11:15:08;;;;;;;6.43;2.40;;;18.70;99.90;;;;;;5035791;28;20446;-71
2023/09/19 11:17:36;;;;;;;5.78;2.58;;;18.40;99.90;;;;;;5059677;28;20048;-71
2023/09/19 11:20:15;;;;;;;9.85;2.75;;;18.30;99.90;;;;;;5055933;28;20048;-71
2023/09/19 11:22:59;;;;;;;11.73;3.08;;;18.20;99.90;;;;;;5055998;28;20041;-71
2023/09/19 11:25:43;;;;;;;15.35;3.70;;;18.10;99.90;;;;;;5056797;28;20579;-71
2023/09/19 11:28:14;;;;;;;6.82;2.63;;;18.10;99.90;;;;;;5052076;28;20053;-71
2023/09/19 11:30:50;;;;;;;9.15;2.72;;;18.10;99.90;;;;;;5036616;28;20045;-71
2023/09/19 11:33:38;;;;;;;14.23;2.97;;;17.90;99.90;;;;;;5036717;28;20499;-71
2023/09/19 11:36:09;;;;;;;7.78;2.70;;;17.90;99.90;;;;;;5034851;28;20052;-71
2023/09/19 11:38:44;;;;;;;11.05;2.88;;;17.90;99.90;;;;;;5049603;28;20123;-71
2023/09/19 11:41:26;;;;;;;11.20;3.33;;;17.90;99.90;;;;;;5055629;28;20495;-71
2023/09/19 11:43:54;;;;;;;14.20;3.20;;;17.50;99.90;;;;;;5051777;28;20041;-71
2023/09/19 11:46:23;;;;;;;13.30;3.92;;;17.20;99.90;;;;;;5036250;28;20061;-71
2023/09/19 11:48:50;;;;;;;9.45;3.22;;;16.90;99.90;;;;;;5050756;28;20044;-71
2023/09/19 11:51:29;;;;;;;15.23;3.53;;;16.80;99.90;;;;;;5055845;28;20385;-70
2023/09/19 11:53:56;;;;;;;11.57;3.28;;;16.70;99.90;;;;;;5052172;28;20055;-70
2023/09/19 11:56:25;;;;;;;12.70;3.25;;;16.50;99.90;;;;;;5035501;28;20060;-70
2023/09/19 11:58:55;;;;;;;10.32;3.20;;;16.40;99.90;;;;;;5035760;28;20045;-71
2023/09/19 12:01:28;;;;;;;16.83;3.72;;;16.50;99.90;;;;;;5037805;28;20045;-71
2023/09/19 12:03:57;;;;;;;12.68;4.25;;;16.60;99.90;;;;;;5050902;28;20094;-71
2023/09/19 12:06:25;;;;;;;10.57;3.10;;;16.60;99.90;;;;;;5035826;28;20052;-71
2023/09/19 12:08:54;;;;;;;9.45;2.97;;;16.80;99.90;;;;;;5053425;28;20399;-72
2023/09/19 12:11:23;;;;;;;8.95;2.38;;;17.00;99.90;;;;;;5036341;28;20049;-71
2023/09/19 12:13:49;;;;;;;6.68;2.25;;;17.30;99.90;;;;;;5054711;28;20048;-73
2023/09/19 12:16:21;;;;;;;7.15;2.70;;;17.30;99.90;;;;;;5055718;28;20094;-71
2023/09/19 12:18:50;;;;;;;9.25;2.50;;;17.50;99.90;;;;;;5054607;28;20049;-72
2023/09/19 12:21:34;;;;;;;7.60;2.28;;;17.60;99.90;;;;;;5055308;28;20040;-72
2023/09/19 12:24:06;;;;;;;7.90;2.30;;;17.70;99.90;;;;;;5050584;28;20048;-72
2023/09/19 12:26:43;;;;;;;8.43;2.20;;;17.90;99.90;;;;;;5035713;28;20090;-73
2023/09/19 12:29:20;;;;;;;7.05;2.53;;;17.90;99.90;;;;;;5034749;28;20049;-73
2023/09/19 12:31:57;;;;;;;12.15;2.15;;;17.80;99.90;;;;;;5038980;28;20045;-72
2023/09/19 12:34:28;;;;;;;5.68;2.08;;;17.80;99.90;;;;;;5055076;28;20090;-72
2023/09/19 12:37:20;;;;;;;8.80;2.88;;;17.80;99.90;;;;;;5054670;28;20082;-72
2023/09/19 12:39:51;;;;;;;7.38;2.70;;;17.70;99.90;;;;;;5053330;28;20106;-71
2023/09/19 12:42:22;;;;;;;12.32;3.28;;;17.30;99.90;;;;;;5054997;28;20054;-71
2023/09/19 12:45:00;;;;;;;10.25;2.60;;;17.10;99.90;;;;;;5050988;28;20079;-70
2023/09/19 12:47:34;;;;;;;10.63;2.67;;;16.90;99.90;;;;;;5052701;28;20036;-71
2023/09/19 12:50:25;;;;;;;8.05;2.42;;;16.70;99.90;;;;;;5044523;28;20043;-71
2023/09/19 12:52:53;;;;;;;10.48;2.78;;;16.60;99.90;;;;;;5053952;28;20044;-71
2023/09/19 12:55:32;;;;;;;7.82;2.72;;;16.40;99.90;;;;;;5054281;28;20048;-72
2023/09/19 12:58:18;;;;;;;5.95;2.28;;;16.50;99.90;;;;;;5071808;28;20052;-71
2023/09/19 13:00:45;;;;;;;9.20;2.38;;;16.50;99.90;;;;;;5054208;28;20084;-71
2023/09/19 13:03:25;;;;;;;9.20;3.00;;;16.50;99.90;;;;;;5054166;28;20048;-74
2023/09/19 13:06:02;;;;;;;8.93;2.70;;;16.60;99.90;;;;;;5049594;28;20049;-73